sensor_id;sensor_type;location;lat;lon;timestamp;pressure;altitude;pressure_sealevel;temperature;humidity
9899;BME280;4988;49.238;6.698;2023-06-26T00:01:01;99001.25;;;20.84;70.10
9899;BME280;4988;49.238;6.698;2023-06-26T00:03:27;98998.63;;;20.73;70.59
9899;BME280;4988;49.238;6.698;2023-06-26T00:05:54;98989.78;;;20.71;70.89
9899;BME280;4988;49.238;6.698;2023-06-26T00:08:19;98995.81;;;20.75;70.83
9899;BME280;4988;49.238;6.698;2023-06-26T00:10:45;98992.06;;;20.66;71.17
9899;BME280;4988;49.238;6.698;2023-06-26T00:13:11;98998.28;;;20.56;71.38
9899;BME280;4988;49.238;6.698;2023-06-26T00:15:37;98998.22;;;20.37;72.16
9899;BME280;4988;49.238;6.698;2023-06-26T00:18:03;99001.69;;;20.08;73.91
9899;BME280;4988;49.238;6.698;2023-06-26T00:20:28;99005.91;;;19.80;74.98
9899;BME280;4988;49.238;6.698;2023-06-26T00:22:54;99014.38;;;19.33;78.01
9899;BME280;4988;49.238;6.698;2023-06-26T00:25:20;99002.75;;;19.00;79.55
9899;BME280;4988;49.238;6.698;2023-06-26T00:27:46;99007.44;;;18.86;79.53
9899;BME280;4988;49.238;6.698;2023-06-26T00:30:11;99006.97;;;18.81;80.40
9899;BME280;4988;49.238;6.698;2023-06-26T00:32:37;99007.19;;;18.78;80.78
9899;BME280;4988;49.238;6.698;2023-06-26T00:35:02;99004.72;;;18.86;80.28
9899;BME280;4988;49.238;6.698;2023-06-26T00:37:27;99002.50;;;19.03;79.30
9899;BME280;4988;49.238;6.698;2023-06-26T00:39:53;99002.41;;;19.25;77.75
9899;BME280;4988;49.238;6.698;2023-06-26T00:42:18;99005.19;;;19.35;77.21
9899;BME280;4988;49.238;6.698;2023-06-26T00:44:43;99006.50;;;19.41;76.66
9899;BME280;4988;49.238;6.698;2023-06-26T00:47:11;99006.44;;;19.52;75.51
9899;BME280;4988;49.238;6.698;2023-06-26T00:49:39;99003.19;;;19.58;75.38
9899;BME280;4988;49.238;6.698;2023-06-26T00:52:05;99003.09;;;19.60;75.78
9899;BME280;4988;49.238;6.698;2023-06-26T00:54:31;99002.81;;;19.63;75.43
9899;BME280;4988;49.238;6.698;2023-06-26T00:56:57;99000.09;;;19.63;76.07
9899;BME280;4988;49.238;6.698;2023-06-26T00:59:22;98998.06;;;19.55;75.90
9899;BME280;4988;49.238;6.698;2023-06-26T01:01:47;98997.88;;;19.47;76.49
9899;BME280;4988;49.238;6.698;2023-06-26T01:04:13;98996.34;;;19.54;74.93
9899;BME280;4988;49.238;6.698;2023-06-26T01:06:45;99006.25;;;19.44;75.58
9899;BME280;4988;49.238;6.698;2023-06-26T01:09:16;99005.63;;;19.19;76.99
9899;BME280;4988;49.238;6.698;2023-06-26T01:11:42;99005.13;;;19.14;77.26
9899;BME280;4988;49.238;6.698;2023-06-26T01:14:08;98999.13;;;19.10;77.55
9899;BME280;4988;49.238;6.698;2023-06-26T01:16:34;98997.53;;;19.19;76.98
9899;BME280;4988;49.238;6.698;2023-06-26T01:19:00;99001.22;;;19.18;77.52
9899;BME280;4988;49.238;6.698;2023-06-26T01:21:26;99000.34;;;19.18;77.01
9899;BME280;4988;49.238;6.698;2023-06-26T01:24:16;98995.53;;;19.21;76.75
9899;BME280;4988;49.238;6.698;2023-06-26T01:26:53;98991.63;;;19.25;76.70
9899;BME280;4988;49.238;6.698;2023-06-26T01:29:19;98985.81;;;19.30;77.25
9899;BME280;4988;49.238;6.698;2023-06-26T01:31:48;98987.06;;;19.26;77.06
9899;BME280;4988;49.238;6.698;2023-06-26T01:34:17;98987.91;;;19.26;76.98
9899;BME280;4988;49.238;6.698;2023-06-26T01:36:44;98983.72;;;19.34;76.56
9899;BME280;4988;49.238;6.698;2023-06-26T01:39:12;98985.41;;;19.35;76.12
9899;BME280;4988;49.238;6.698;2023-06-26T01:41:37;98992.84;;;19.21;77.29
9899;BME280;4988;49.238;6.698;2023-06-26T01:44:15;98994.41;;;19.03;77.24
9899;BME280;4988;49.238;6.698;2023-06-26T01:47:16;99002.06;;;18.63;78.49
9899;BME280;4988;49.238;6.698;2023-06-26T01:52:14;98999.03;;;17.89;82.23
9899;BME280;4988;49.238;6.698;2023-06-26T01:54:58;99000.84;;;17.65;84.54
9899;BME280;4988;49.238;6.698;2023-06-26T01:57:27;99000.91;;;17.52;84.67
9899;BME280;4988;49.238;6.698;2023-06-26T01:59:54;99005.47;;;17.52;84.70
9899;BME280;4988;49.238;6.698;2023-06-26T02:02:20;99002.50;;;17.44;87.10
9899;BME280;4988;49.238;6.698;2023-06-26T02:04:45;98995.88;;;17.36;86.54
9899;BME280;4988;49.238;6.698;2023-06-26T02:07:13;98996.75;;;17.37;86.45
9899;BME280;4988;49.238;6.698;2023-06-26T02:09:38;99003.84;;;17.38;87.98
9899;BME280;4988;49.238;6.698;2023-06-26T02:12:04;98999.53;;;17.35;87.97
9899;BME280;4988;49.238;6.698;2023-06-26T02:14:29;98997.84;;;17.46;87.39
9899;BME280;4988;49.238;6.698;2023-06-26T02:16:55;98994.44;;;17.55;86.48
9899;BME280;4988;49.238;6.698;2023-06-26T02:19:20;98998.22;;;17.52;85.99
9899;BME280;4988;49.238;6.698;2023-06-26T02:21:48;99000.44;;;17.47;86.94
9899;BME280;4988;49.238;6.698;2023-06-26T02:24:14;98994.19;;;17.47;86.71
9899;BME280;4988;49.238;6.698;2023-06-26T02:26:39;98985.88;;;17.50;85.42
9899;BME280;4988;49.238;6.698;2023-06-26T02:29:05;98992.13;;;17.50;85.45
9899;BME280;4988;49.238;6.698;2023-06-26T02:31:30;98994.41;;;17.44;85.73
9899;BME280;4988;49.238;6.698;2023-06-26T02:33:55;98991.44;;;17.35;85.89
9899;BME280;4988;49.238;6.698;2023-06-26T02:36:21;98996.13;;;17.33;86.55
9899;BME280;4988;49.238;6.698;2023-06-26T02:38:46;98992.22;;;17.49;86.39
9899;BME280;4988;49.238;6.698;2023-06-26T02:41:11;98992.50;;;17.68;84.96
9899;BME280;4988;49.238;6.698;2023-06-26T02:43:36;99001.59;;;17.79;83.65
9899;BME280;4988;49.238;6.698;2023-06-26T02:46:02;98995.22;;;17.80;83.85
9899;BME280;4988;49.238;6.698;2023-06-26T02:48:27;99004.66;;;17.74;83.51
9899;BME280;4988;49.238;6.698;2023-06-26T02:50:52;99000.31;;;17.49;84.16
9899;BME280;4988;49.238;6.698;2023-06-26T02:53:18;99002.47;;;17.32;86.21
9899;BME280;4988;49.238;6.698;2023-06-26T02:55:43;99005.13;;;17.21;86.42
9899;BME280;4988;49.238;6.698;2023-06-26T02:58:08;99003.63;;;17.17;86.54
9899;BME280;4988;49.238;6.698;2023-06-26T03:00:33;99009.13;;;17.15;86.01
9899;BME280;4988;49.238;6.698;2023-06-26T03:02:59;99010.91;;;17.03;86.89
9899;BME280;4988;49.238;6.698;2023-06-26T03:05:24;99008.16;;;16.92;87.73
9899;BME280;4988;49.238;6.698;2023-06-26T03:07:50;99004.50;;;16.93;87.05
9899;BME280;4988;49.238;6.698;2023-06-26T03:10:15;99009.72;;;17.08;87.07
9899;BME280;4988;49.238;6.698;2023-06-26T03:12:40;99010.03;;;17.27;85.81
9899;BME280;4988;49.238;6.698;2023-06-26T03:15:06;99017.63;;;17.33;85.28
9899;BME280;4988;49.238;6.698;2023-06-26T03:17:31;99011.78;;;17.40;85.68
9899;BME280;4988;49.238;6.698;2023-06-26T03:19:57;99007.50;;;17.37;83.95
9899;BME280;4988;49.238;6.698;2023-06-26T03:22:22;99018.91;;;17.16;85.01
9899;BME280;4988;49.238;6.698;2023-06-26T03:24:47;99020.94;;;17.01;85.38
9899;BME280;4988;49.238;6.698;2023-06-26T03:27:13;99016.66;;;16.86;87.60
9899;BME280;4988;49.238;6.698;2023-06-26T03:29:38;99020.03;;;16.77;87.76
9899;BME280;4988;49.238;6.698;2023-06-26T03:32:04;99012.75;;;16.66;88.04
9899;BME280;4988;49.238;6.698;2023-06-26T03:34:29;99013.50;;;16.68;89.00
9899;BME280;4988;49.238;6.698;2023-06-26T03:36:54;99017.91;;;16.69;89.25
9899;BME280;4988;49.238;6.698;2023-06-26T03:39:20;99026.38;;;16.76;88.85
9899;BME280;4988;49.238;6.698;2023-06-26T03:41:45;99014.66;;;16.77;87.92
9899;BME280;4988;49.238;6.698;2023-06-26T03:44:10;99025.63;;;16.73;87.61
9899;BME280;4988;49.238;6.698;2023-06-26T03:46:35;99025.09;;;16.68;88.08
9899;BME280;4988;49.238;6.698;2023-06-26T03:49:01;99025.97;;;16.69;88.11
9899;BME280;4988;49.238;6.698;2023-06-26T03:51:26;99026.53;;;16.61;88.70
9899;BME280;4988;49.238;6.698;2023-06-26T03:53:51;99025.97;;;16.69;89.14
9899;BME280;4988;49.238;6.698;2023-06-26T03:56:17;99024.81;;;16.60;88.88
9899;BME280;4988;49.238;6.698;2023-06-26T03:58:42;99016.66;;;16.62;87.78
9899;BME280;4988;49.238;6.698;2023-06-26T04:01:07;99024.97;;;16.83;88.24
9899;BME280;4988;49.238;6.698;2023-06-26T04:03:33;99019.00;;;16.91;87.36
9899;BME280;4988;49.238;6.698;2023-06-26T04:05:59;99022.56;;;17.15;86.53
9899;BME280;4988;49.238;6.698;2023-06-26T04:08:24;99025.72;;;17.33;85.83
9899;BME280;4988;49.238;6.698;2023-06-26T04:10:52;99033.38;;;17.27;85.22
9899;BME280;4988;49.238;6.698;2023-06-26T04:13:18;99034.75;;;17.32;84.69
9899;BME280;4988;49.238;6.698;2023-06-26T04:15:44;99033.31;;;17.40;84.63
9899;BME280;4988;49.238;6.698;2023-06-26T04:18:09;99035.41;;;17.47;83.94
9899;BME280;4988;49.238;6.698;2023-06-26T04:20:39;99031.91;;;17.58;83.64
9899;BME280;4988;49.238;6.698;2023-06-26T04:23:05;99035.84;;;17.65;83.53
9899;BME280;4988;49.238;6.698;2023-06-26T04:25:30;99034.41;;;17.84;82.58
9899;BME280;4988;49.238;6.698;2023-06-26T04:27:55;99036.31;;;17.95;82.02
9899;BME280;4988;49.238;6.698;2023-06-26T04:30:20;99043.19;;;17.86;82.70
9899;BME280;4988;49.238;6.698;2023-06-26T04:32:46;99043.34;;;17.84;82.66
9899;BME280;4988;49.238;6.698;2023-06-26T04:35:11;99055.94;;;17.73;83.97
9899;BME280;4988;49.238;6.698;2023-06-26T04:37:36;99059.66;;;17.59;84.91
9899;BME280;4988;49.238;6.698;2023-06-26T04:40:04;99046.97;;;17.72;84.54
9899;BME280;4988;49.238;6.698;2023-06-26T04:42:30;99052.00;;;17.77;84.73
9899;BME280;4988;49.238;6.698;2023-06-26T04:44:55;99061.34;;;17.84;84.71
9899;BME280;4988;49.238;6.698;2023-06-26T04:47:21;99059.63;;;17.83;83.56
9899;BME280;4988;49.238;6.698;2023-06-26T04:49:46;99061.56;;;17.81;83.19
9899;BME280;4988;49.238;6.698;2023-06-26T04:52:12;99059.25;;;17.88;83.24
9899;BME280;4988;49.238;6.698;2023-06-26T04:54:40;99061.88;;;18.00;83.66
9899;BME280;4988;49.238;6.698;2023-06-26T04:57:05;99060.56;;;18.17;83.09
9899;BME280;4988;49.238;6.698;2023-06-26T04:59:31;99061.53;;;18.28;83.79
9899;BME280;4988;49.238;6.698;2023-06-26T05:01:56;99062.38;;;18.51;83.11
9899;BME280;4988;49.238;6.698;2023-06-26T05:04:22;99065.31;;;18.71;81.61
9899;BME280;4988;49.238;6.698;2023-06-26T05:06:48;99054.63;;;18.92;81.03
9899;BME280;4988;49.238;6.698;2023-06-26T05:09:13;99068.97;;;19.04;79.98
9899;BME280;4988;49.238;6.698;2023-06-26T05:11:39;99065.28;;;19.05;79.58
9899;BME280;4988;49.238;6.698;2023-06-26T05:14:05;99069.59;;;18.96;80.70
9899;BME280;4988;49.238;6.698;2023-06-26T05:16:33;99074.34;;;19.04;80.73
9899;BME280;4988;49.238;6.698;2023-06-26T05:18:58;99077.91;;;19.16;79.99
9899;BME280;4988;49.238;6.698;2023-06-26T05:21:23;99071.19;;;19.31;79.87
9899;BME280;4988;49.238;6.698;2023-06-26T05:23:49;99080.28;;;19.63;78.28
9899;BME280;4988;49.238;6.698;2023-06-26T05:26:17;99077.94;;;19.90;77.27
9899;BME280;4988;49.238;6.698;2023-06-26T05:28:42;99084.06;;;20.14;74.85
9899;BME280;4988;49.238;6.698;2023-06-26T05:31:13;99083.84;;;20.27;74.04
9899;BME280;4988;49.238;6.698;2023-06-26T05:33:40;99085.09;;;20.53;73.67
9899;BME280;4988;49.238;6.698;2023-06-26T05:36:08;99092.75;;;20.79;73.07
9899;BME280;4988;49.238;6.698;2023-06-26T05:38:34;99099.63;;;20.83;73.22
9899;BME280;4988;49.238;6.698;2023-06-26T05:41:00;99102.00;;;20.77;74.23
9899;BME280;4988;49.238;6.698;2023-06-26T05:43:25;99098.63;;;20.75;74.53
9899;BME280;4988;49.238;6.698;2023-06-26T05:45:51;99101.16;;;20.76;75.23
9899;BME280;4988;49.238;6.698;2023-06-26T05:48:16;99106.03;;;20.82;75.41
9899;BME280;4988;49.238;6.698;2023-06-26T05:50:42;99112.94;;;21.06;74.52
9899;BME280;4988;49.238;6.698;2023-06-26T05:53:08;99125.78;;;21.14;73.40
9899;BME280;4988;49.238;6.698;2023-06-26T05:55:33;99125.78;;;21.24;74.05
9899;BME280;4988;49.238;6.698;2023-06-26T05:57:59;99120.53;;;21.42;72.22
9899;BME280;4988;49.238;6.698;2023-06-26T06:00:26;99114.88;;;21.55;71.94
9899;BME280;4988;49.238;6.698;2023-06-26T06:02:52;99120.44;;;21.73;70.63
9899;BME280;4988;49.238;6.698;2023-06-26T06:05:20;99125.28;;;21.79;70.26
9899;BME280;4988;49.238;6.698;2023-06-26T06:07:46;99136.41;;;22.05;69.05
9899;BME280;4988;49.238;6.698;2023-06-26T06:10:12;99139.53;;;22.20;68.04
9899;BME280;4988;49.238;6.698;2023-06-26T06:12:37;99146.66;;;22.31;67.80
9899;BME280;4988;49.238;6.698;2023-06-26T06:15:02;99140.34;;;22.40;66.85
9899;BME280;4988;49.238;6.698;2023-06-26T06:17:28;99147.06;;;22.36;66.94
9899;BME280;4988;49.238;6.698;2023-06-26T06:19:53;99138.06;;;22.45;67.17
9899;BME280;4988;49.238;6.698;2023-06-26T06:22:18;99149.75;;;22.56;66.35
9899;BME280;4988;49.238;6.698;2023-06-26T06:24:44;99145.50;;;22.43;66.02
9899;BME280;4988;49.238;6.698;2023-06-26T06:27:09;99147.50;;;22.41;65.56
9899;BME280;4988;49.238;6.698;2023-06-26T06:29:35;99154.50;;;22.24;66.40
9899;BME280;4988;49.238;6.698;2023-06-26T06:32:00;99166.22;;;22.25;66.92
9899;BME280;4988;49.238;6.698;2023-06-26T06:34:25;99159.06;;;22.24;66.42
9899;BME280;4988;49.238;6.698;2023-06-26T06:36:51;99164.34;;;22.15;66.23
9899;BME280;4988;49.238;6.698;2023-06-26T06:39:16;99166.06;;;22.16;66.40
9899;BME280;4988;49.238;6.698;2023-06-26T06:41:41;99172.34;;;22.07;65.97
9899;BME280;4988;49.238;6.698;2023-06-26T06:44:07;99180.06;;;22.22;65.91
9899;BME280;4988;49.238;6.698;2023-06-26T06:46:32;99185.19;;;22.35;64.37
9899;BME280;4988;49.238;6.698;2023-06-26T06:48:58;99182.34;;;22.46;62.90
9899;BME280;4988;49.238;6.698;2023-06-26T06:51:23;99169.59;;;22.37;60.72
9899;BME280;4988;49.238;6.698;2023-06-26T06:53:48;99176.91;;;22.36;60.59
9899;BME280;4988;49.238;6.698;2023-06-26T06:56:14;99164.31;;;22.55;57.79
9899;BME280;4988;49.238;6.698;2023-06-26T06:58:39;99171.69;;;22.72;57.54
9899;BME280;4988;49.238;6.698;2023-06-26T07:01:08;99171.66;;;22.82;55.22
9899;BME280;4988;49.238;6.698;2023-06-26T07:03:34;99173.56;;;22.72;53.07
9899;BME280;4988;49.238;6.698;2023-06-26T07:05:59;99169.16;;;22.61;53.27
9899;BME280;4988;49.238;6.698;2023-06-26T07:08:25;99176.69;;;22.67;52.55
9899;BME280;4988;49.238;6.698;2023-06-26T07:10:50;99177.53;;;22.68;52.41
9899;BME280;4988;49.238;6.698;2023-06-26T07:13:15;99181.94;;;22.78;51.62
9899;BME280;4988;49.238;6.698;2023-06-26T07:15:41;99179.34;;;22.87;51.66
9899;BME280;4988;49.238;6.698;2023-06-26T07:18:06;99173.88;;;22.96;50.81
9899;BME280;4988;49.238;6.698;2023-06-26T07:20:31;99171.50;;;23.21;48.90
9899;BME280;4988;49.238;6.698;2023-06-26T07:22:57;99181.09;;;23.43;48.74
9899;BME280;4988;49.238;6.698;2023-06-26T07:25:22;99184.91;;;23.69;48.68
9899;BME280;4988;49.238;6.698;2023-06-26T07:27:47;99178.25;;;23.81;48.51
9899;BME280;4988;49.238;6.698;2023-06-26T07:30:13;99198.97;;;23.82;52.21
9899;BME280;4988;49.238;6.698;2023-06-26T07:32:38;99186.09;;;23.84;50.28
9899;BME280;4988;49.238;6.698;2023-06-26T07:35:05;99191.66;;;23.92;51.17
9899;BME280;4988;49.238;6.698;2023-06-26T07:37:31;99184.09;;;24.04;50.36
9899;BME280;4988;49.238;6.698;2023-06-26T07:39:56;99200.03;;;24.17;52.40
9899;BME280;4988;49.238;6.698;2023-06-26T07:42:22;99194.50;;;24.27;50.54
9899;BME280;4988;49.238;6.698;2023-06-26T07:44:47;99190.59;;;24.30;50.80
9899;BME280;4988;49.238;6.698;2023-06-26T07:47:12;99204.03;;;24.31;51.73
9899;BME280;4988;49.238;6.698;2023-06-26T07:49:39;99201.16;;;24.33;51.36
9899;BME280;4988;49.238;6.698;2023-06-26T07:52:04;99211.13;;;24.24;51.72
9899;BME280;4988;49.238;6.698;2023-06-26T07:54:30;99210.91;;;24.17;51.26
9899;BME280;4988;49.238;6.698;2023-06-26T07:59:22;99210.88;;;23.81;51.81
9899;BME280;4988;49.238;6.698;2023-06-26T08:01:49;99210.63;;;23.74;51.73
9899;BME280;4988;49.238;6.698;2023-06-26T08:04:15;99224.88;;;23.86;51.67
9899;BME280;4988;49.238;6.698;2023-06-26T08:06:40;99223.00;;;23.87;51.99
9899;BME280;4988;49.238;6.698;2023-06-26T08:09:06;99219.78;;;24.01;52.31
9899;BME280;4988;49.238;6.698;2023-06-26T08:11:33;99227.09;;;23.91;52.97
9899;BME280;4988;49.238;6.698;2023-06-26T08:13:58;99229.28;;;23.69;53.96
9899;BME280;4988;49.238;6.698;2023-06-26T08:16:23;99233.53;;;23.72;53.63
9899;BME280;4988;49.238;6.698;2023-06-26T08:18:49;99227.50;;;23.78;53.87
9899;BME280;4988;49.238;6.698;2023-06-26T08:21:14;99217.25;;;23.90;53.40
9899;BME280;4988;49.238;6.698;2023-06-26T08:23:39;99224.66;;;23.98;53.17
9899;BME280;4988;49.238;6.698;2023-06-26T08:26:05;99234.69;;;23.97;51.80
9899;BME280;4988;49.238;6.698;2023-06-26T08:28:30;99236.09;;;24.01;50.59
9899;BME280;4988;49.238;6.698;2023-06-26T08:30:55;99228.94;;;24.00;50.88
9899;BME280;4988;49.238;6.698;2023-06-26T08:33:21;99224.34;;;24.19;50.84
9899;BME280;4988;49.238;6.698;2023-06-26T08:35:46;99222.41;;;24.11;50.25
9899;BME280;4988;49.238;6.698;2023-06-26T08:38:11;99221.63;;;24.19;49.05
9899;BME280;4988;49.238;6.698;2023-06-26T08:40:36;99215.78;;;24.32;48.90
9899;BME280;4988;49.238;6.698;2023-06-26T08:43:03;99223.53;;;24.27;48.74
9899;BME280;4988;49.238;6.698;2023-06-26T08:45:29;99227.94;;;24.01;47.81
9899;BME280;4988;49.238;6.698;2023-06-26T08:48:00;99227.84;;;23.93;48.29
9899;BME280;4988;49.238;6.698;2023-06-26T08:50:28;99226.97;;;24.11;48.63
9899;BME280;4988;49.238;6.698;2023-06-26T08:53:04;99229.94;;;24.35;47.93
9899;BME280;4988;49.238;6.698;2023-06-26T08:55:35;99228.06;;;24.36;47.72
9899;BME280;4988;49.238;6.698;2023-06-26T08:58:03;99230.25;;;24.58;46.75
9899;BME280;4988;49.238;6.698;2023-06-26T09:00:29;99233.09;;;24.67;47.23
9899;BME280;4988;49.238;6.698;2023-06-26T09:02:56;99235.75;;;24.85;45.76
9899;BME280;4988;49.238;6.698;2023-06-26T09:05:21;99232.41;;;24.91;45.67
9899;BME280;4988;49.238;6.698;2023-06-26T09:07:46;99232.41;;;24.99;45.42
9899;BME280;4988;49.238;6.698;2023-06-26T09:10:12;99227.78;;;25.18;45.18
9899;BME280;4988;49.238;6.698;2023-06-26T09:12:37;99236.31;;;25.23;45.48
9899;BME280;4988;49.238;6.698;2023-06-26T09:15:07;99239.97;;;24.61;47.15
9899;BME280;4988;49.238;6.698;2023-06-26T09:17:38;99238.31;;;24.86;47.30
9899;BME280;4988;49.238;6.698;2023-06-26T09:20:06;99248.50;;;24.84;46.67
9899;BME280;4988;49.238;6.698;2023-06-26T09:22:35;99246.53;;;24.68;48.30
9899;BME280;4988;49.238;6.698;2023-06-26T09:25:02;99257.56;;;24.85;48.46
9899;BME280;4988;49.238;6.698;2023-06-26T09:27:28;99257.84;;;24.82;48.38
9899;BME280;4988;49.238;6.698;2023-06-26T09:29:53;99264.47;;;25.05;48.39
9899;BME280;4988;49.238;6.698;2023-06-26T09:32:26;99260.06;;;25.13;48.81
9899;BME280;4988;49.238;6.698;2023-06-26T09:34:53;99260.84;;;25.23;47.51
9899;BME280;4988;49.238;6.698;2023-06-26T09:37:21;99274.91;;;24.84;48.69
9899;BME280;4988;49.238;6.698;2023-06-26T09:39:46;99287.44;;;24.77;49.66
9899;BME280;4988;49.238;6.698;2023-06-26T09:42:13;99274.19;;;24.82;50.14
9899;BME280;4988;49.238;6.698;2023-06-26T09:44:44;99279.78;;;24.98;49.84
9899;BME280;4988;49.238;6.698;2023-06-26T09:47:10;99271.84;;;24.87;50.48
9899;BME280;4988;49.238;6.698;2023-06-26T09:49:35;99267.84;;;24.99;51.08
9899;BME280;4988;49.238;6.698;2023-06-26T09:52:01;99259.03;;;24.79;50.20
9899;BME280;4988;49.238;6.698;2023-06-26T09:54:27;99266.09;;;24.90;51.06
9899;BME280;4988;49.238;6.698;2023-06-26T09:56:56;99260.47;;;24.92;47.37
9899;BME280;4988;49.238;6.698;2023-06-26T09:59:21;99264.25;;;24.99;47.20
9899;BME280;4988;49.238;6.698;2023-06-26T10:01:47;99258.09;;;24.88;48.40
9899;BME280;4988;49.238;6.698;2023-06-26T10:04:13;99262.25;;;25.01;49.31
9899;BME280;4988;49.238;6.698;2023-06-26T10:06:46;99263.97;;;25.02;49.97
9899;BME280;4988;49.238;6.698;2023-06-26T10:09:14;99265.84;;;24.83;49.95
9899;BME280;4988;49.238;6.698;2023-06-26T10:12:11;99255.63;;;25.03;50.26
9899;BME280;4988;49.238;6.698;2023-06-26T10:14:39;99249.72;;;25.16;49.18
9899;BME280;4988;49.238;6.698;2023-06-26T10:17:09;99249.72;;;25.43;47.82
9899;BME280;4988;49.238;6.698;2023-06-26T10:19:39;99253.69;;;25.57;47.06
9899;BME280;4988;49.238;6.698;2023-06-26T10:22:07;99244.69;;;25.73;46.35
9899;BME280;4988;49.238;6.698;2023-06-26T10:24:33;99247.59;;;25.71;45.29
9899;BME280;4988;49.238;6.698;2023-06-26T10:27:24;99262.13;;;25.37;47.39
9899;BME280;4988;49.238;6.698;2023-06-26T10:29:55;99265.81;;;25.36;46.47
9899;BME280;4988;49.238;6.698;2023-06-26T10:32:23;99249.72;;;25.43;43.32
9899;BME280;4988;49.238;6.698;2023-06-26T10:34:50;99257.13;;;25.32;43.04
9899;BME280;4988;49.238;6.698;2023-06-26T10:37:15;99271.22;;;25.54;43.96
9899;BME280;4988;49.238;6.698;2023-06-26T10:39:51;99277.41;;;25.73;44.66
9899;BME280;4988;49.238;6.698;2023-06-26T10:42:20;99276.06;;;25.68;44.11
9899;BME280;4988;49.238;6.698;2023-06-26T10:44:53;99269.28;;;25.81;44.05
9899;BME280;4988;49.238;6.698;2023-06-26T10:47:45;99264.59;;;26.16;38.60
9899;BME280;4988;49.238;6.698;2023-06-26T10:50:18;99276.91;;;26.45;38.55
9899;BME280;4988;49.238;6.698;2023-06-26T10:52:44;99271.75;;;26.58;36.15
9899;BME280;4988;49.238;6.698;2023-06-26T10:55:09;99283.88;;;26.31;38.05
9899;BME280;4988;49.238;6.698;2023-06-26T10:57:38;99284.03;;;26.46;38.85
9899;BME280;4988;49.238;6.698;2023-06-26T11:00:10;99291.06;;;26.40;37.57
9899;BME280;4988;49.238;6.698;2023-06-26T11:02:49;99285.03;;;26.20;37.84
9899;BME280;4988;49.238;6.698;2023-06-26T11:05:26;99295.28;;;26.10;36.98
9899;BME280;4988;49.238;6.698;2023-06-26T11:08:09;99305.69;;;26.14;39.06
9899;BME280;4988;49.238;6.698;2023-06-26T11:10:48;99294.53;;;25.99;38.45
9899;BME280;4988;49.238;6.698;2023-06-26T11:13:17;99294.47;;;25.83;37.59
9899;BME280;4988;49.238;6.698;2023-06-26T11:15:43;99297.38;;;25.81;38.67
9899;BME280;4988;49.238;6.698;2023-06-26T11:18:12;99295.66;;;25.80;38.90
9899;BME280;4988;49.238;6.698;2023-06-26T11:20:38;99295.53;;;25.90;38.90
9899;BME280;4988;49.238;6.698;2023-06-26T11:23:08;99285.16;;;25.94;38.56
9899;BME280;4988;49.238;6.698;2023-06-26T11:25:35;99290.78;;;25.92;38.76
9899;BME280;4988;49.238;6.698;2023-06-26T11:28:00;99287.44;;;26.15;38.17
9899;BME280;4988;49.238;6.698;2023-06-26T11:30:26;99290.72;;;26.52;38.24
9899;BME280;4988;49.238;6.698;2023-06-26T11:32:51;99285.25;;;26.52;37.44
9899;BME280;4988;49.238;6.698;2023-06-26T11:35:24;99285.59;;;26.40;37.47
9899;BME280;4988;49.238;6.698;2023-06-26T11:37:58;99291.56;;;26.36;37.23
9899;BME280;4988;49.238;6.698;2023-06-26T11:40:26;99301.25;;;26.30;38.68
9899;BME280;4988;49.238;6.698;2023-06-26T11:42:58;99299.09;;;25.82;38.32
9899;BME280;4988;49.238;6.698;2023-06-26T11:45:24;99295.50;;;25.82;37.76
9899;BME280;4988;49.238;6.698;2023-06-26T11:47:49;99289.00;;;25.66;36.38
9899;BME280;4988;49.238;6.698;2023-06-26T11:50:16;99295.75;;;25.54;36.04
9899;BME280;4988;49.238;6.698;2023-06-26T11:52:44;99303.63;;;25.65;36.54
9899;BME280;4988;49.238;6.698;2023-06-26T11:55:10;99304.69;;;25.73;36.17
9899;BME280;4988;49.238;6.698;2023-06-26T11:57:36;99306.41;;;25.82;34.89
9899;BME280;4988;49.238;6.698;2023-06-26T12:00:14;99289.41;;;25.88;34.57
9899;BME280;4988;49.238;6.698;2023-06-26T12:02:42;99297.34;;;26.16;34.90
9899;BME280;4988;49.238;6.698;2023-06-26T12:05:08;99299.94;;;25.75;34.21
9899;BME280;4988;49.238;6.698;2023-06-26T12:07:34;99295.78;;;25.62;34.71
9899;BME280;4988;49.238;6.698;2023-06-26T12:10:02;99293.28;;;25.77;33.97
9899;BME280;4988;49.238;6.698;2023-06-26T12:12:31;99303.38;;;25.85;36.09
9899;BME280;4988;49.238;6.698;2023-06-26T12:14:58;99290.56;;;25.77;34.12
9899;BME280;4988;49.238;6.698;2023-06-26T12:17:25;99302.03;;;25.55;35.20
9899;BME280;4988;49.238;6.698;2023-06-26T12:19:50;99309.03;;;25.49;36.55
9899;BME280;4988;49.238;6.698;2023-06-26T12:22:17;99291.00;;;25.56;37.46
9899;BME280;4988;49.238;6.698;2023-06-26T12:24:43;99296.03;;;25.85;36.76
9899;BME280;4988;49.238;6.698;2023-06-26T12:27:10;99299.28;;;25.89;35.22
9899;BME280;4988;49.238;6.698;2023-06-26T12:29:37;99295.06;;;26.03;36.07
9899;BME280;4988;49.238;6.698;2023-06-26T12:32:03;99294.28;;;26.19;35.13
9899;BME280;4988;49.238;6.698;2023-06-26T12:34:33;99295.81;;;26.22;35.13
9899;BME280;4988;49.238;6.698;2023-06-26T12:37:07;99297.84;;;26.36;35.26
9899;BME280;4988;49.238;6.698;2023-06-26T12:39:53;99303.50;;;26.35;34.30
9899;BME280;4988;49.238;6.698;2023-06-26T12:42:21;99305.66;;;26.06;34.09
9899;BME280;4988;49.238;6.698;2023-06-26T12:44:47;99291.88;;;26.16;33.22
9899;BME280;4988;49.238;6.698;2023-06-26T12:47:14;99300.94;;;26.16;31.80
9899;BME280;4988;49.238;6.698;2023-06-26T12:49:42;99310.50;;;26.29;32.15
9899;BME280;4988;49.238;6.698;2023-06-26T12:52:10;99306.25;;;26.43;31.67
9899;BME280;4988;49.238;6.698;2023-06-26T12:54:38;99299.03;;;26.17;31.78
9899;BME280;4988;49.238;6.698;2023-06-26T12:57:03;99305.19;;;26.19;32.75
9899;BME280;4988;49.238;6.698;2023-06-26T12:59:30;99307.66;;;25.96;33.62
9899;BME280;4988;49.238;6.698;2023-06-26T13:01:56;99322.91;;;26.07;34.45
9899;BME280;4988;49.238;6.698;2023-06-26T13:04:21;99315.84;;;25.96;33.91
9899;BME280;4988;49.238;6.698;2023-06-26T13:06:47;99316.44;;;26.16;35.03
9899;BME280;4988;49.238;6.698;2023-06-26T13:09:12;99323.44;;;26.27;35.60
9899;BME280;4988;49.238;6.698;2023-06-26T13:11:37;99321.56;;;26.19;34.02
9899;BME280;4988;49.238;6.698;2023-06-26T13:14:03;99331.09;;;26.15;35.06
9899;BME280;4988;49.238;6.698;2023-06-26T13:16:29;99327.38;;;26.24;35.56
9899;BME280;4988;49.238;6.698;2023-06-26T13:18:54;99330.78;;;26.35;34.58
9899;BME280;4988;49.238;6.698;2023-06-26T13:21:21;99325.97;;;26.20;33.34
9899;BME280;4988;49.238;6.698;2023-06-26T13:23:46;99322.34;;;26.03;34.31
9899;BME280;4988;49.238;6.698;2023-06-26T13:26:11;99322.56;;;26.10;34.57